createdAt,value
2019-01-26T00:02:25.233Z,16.70
2019-01-26T00:04:52.198Z,19.60
2019-01-26T00:07:19.134Z,18.40
2019-01-26T00:09:46.104Z,18.53
2019-01-26T00:12:13.082Z,18.97
2019-01-26T00:14:40.038Z,18.33
2019-01-26T00:17:06.939Z,17.50
2019-01-26T00:19:33.888Z,18.63
2019-01-26T00:22:00.802Z,18.87
2019-01-26T00:24:27.717Z,19.80
2019-01-26T00:26:54.694Z,18.37
2019-01-26T00:29:21.612Z,20.67
2019-01-26T00:31:48.549Z,19.37
2019-01-26T00:34:15.459Z,19.03
2019-01-26T00:36:42.422Z,19.63
2019-01-26T00:39:09.345Z,20.20
2019-01-26T00:41:36.471Z,20.17
2019-01-26T00:44:03.519Z,19.70
2019-01-26T00:46:30.479Z,20.10
2019-01-26T00:48:57.457Z,20.20
2019-01-26T00:51:24.402Z,20.07
2019-01-26T00:53:51.394Z,20.27
2019-01-26T00:56:18.440Z,20.33
2019-01-26T00:58:45.362Z,20.50
2019-01-26T01:01:12.399Z,20.80
2019-01-26T01:03:39.389Z,20.87
2019-01-26T01:06:06.383Z,21.87
2019-01-26T01:08:33.349Z,20.60
2019-01-26T01:11:00.363Z,21.30
2019-01-26T01:13:27.276Z,20.90
2019-01-26T01:15:54.232Z,19.70
2019-01-26T01:18:21.325Z,20.90
2019-01-26T01:20:48.317Z,19.07
2019-01-26T01:23:15.388Z,20.80
2019-01-26T01:25:42.381Z,20.20
2019-01-26T01:28:09.327Z,21.47
2019-01-26T01:30:36.249Z,21.30
2019-01-26T01:33:03.195Z,17.90
2019-01-26T01:35:30.102Z,19.57
2019-01-26T01:37:57.078Z,20.20
2019-01-26T01:40:24.045Z,20.40
2019-01-26T01:42:51.000Z,19.30
2019-01-26T01:45:18.332Z,21.00
2019-01-26T01:47:45.320Z,20.30
2019-01-26T01:50:12.803Z,19.80
2019-01-26T01:52:39.854Z,19.43
2019-01-26T01:55:07.797Z,19.40
2019-01-26T01:57:34.851Z,20.10
2019-01-26T02:00:01.771Z,20.50
2019-01-26T02:02:28.768Z,18.73
2019-01-26T02:04:55.670Z,21.40
2019-01-26T02:07:22.597Z,18.90
2019-01-26T02:09:49.568Z,20.13
2019-01-26T02:12:16.757Z,18.97
2019-01-26T02:14:43.678Z,20.30
2019-01-26T02:17:10.640Z,19.40
2019-01-26T02:19:37.555Z,18.57
2019-01-26T02:22:04.604Z,19.57
2019-01-26T02:24:31.559Z,23.20
2019-01-26T02:26:58.507Z,21.30
2019-01-26T02:29:25.432Z,23.73
2019-01-26T02:31:52.396Z,20.83
2019-01-26T02:34:19.371Z,22.23
2019-01-26T02:36:46.322Z,21.60
2019-01-26T02:39:13.251Z,21.50
2019-01-26T02:41:40.212Z,23.50
2019-01-26T02:44:07.207Z,24.70
2019-01-26T02:46:34.175Z,23.43
2019-01-26T02:49:01.135Z,24.53
2019-01-26T02:51:28.059Z,23.27
2019-01-26T02:53:55.025Z,22.90
2019-01-26T02:56:21.951Z,23.93
2019-01-26T02:58:49.006Z,25.47
2019-01-26T03:01:15.942Z,24.50
2019-01-26T03:03:42.934Z,24.10
2019-01-26T03:06:09.914Z,22.40
2019-01-26T03:08:36.926Z,23.10
2019-01-26T03:11:03.868Z,23.23
2019-01-26T03:13:30.834Z,25.87
2019-01-26T03:15:57.774Z,27.77
2019-01-26T03:18:24.744Z,28.13
2019-01-26T03:20:51.680Z,24.83
2019-01-26T03:23:18.648Z,27.00
2019-01-26T03:25:45.551Z,25.70
2019-01-26T03:28:12.491Z,27.30
2019-01-26T03:30:39.424Z,29.40
2019-01-26T03:33:06.397Z,28.33
2019-01-26T03:35:33.315Z,29.00
2019-01-26T03:38:00.278Z,29.00
2019-01-26T03:40:27.175Z,30.03
2019-01-26T03:42:54.104Z,30.67
2019-01-26T03:45:21.024Z,29.87
2019-01-26T03:47:47.990Z,31.60
2019-01-26T03:50:15.816Z,30.97
2019-01-26T03:52:42.856Z,30.00
2019-01-26T03:55:11.861Z,32.63
2019-01-26T03:57:38.800Z,31.67
2019-01-26T04:00:09.638Z,30.87
2019-01-26T04:02:36.557Z,32.77
2019-01-26T04:05:04.603Z,33.73
2019-01-26T04:07:31.520Z,31.93
2019-01-26T04:09:58.477Z,33.20
2019-01-26T04:12:25.383Z,32.97
2019-01-26T04:14:52.324Z,32.03
2019-01-26T04:17:21.972Z,34.70
2019-01-26T04:19:48.074Z,32.37
2019-01-26T04:22:15.003Z,31.13
2019-01-26T04:24:43.442Z,33.10
2019-01-26T04:27:10.351Z,32.73
2019-01-26T04:29:37.334Z,31.60
2019-01-26T04:32:04.302Z,31.27
2019-01-26T04:34:31.272Z,32.30
2019-01-26T04:36:58.214Z,31.50
2019-01-26T04:39:25.171Z,33.17
2019-01-26T04:41:52.080Z,33.70
2019-01-26T04:44:19.043Z,29.30
2019-01-26T04:46:45.949Z,29.70
2019-01-26T04:49:12.946Z,29.93
2019-01-26T04:51:39.918Z,29.17
2019-01-26T04:54:06.884Z,30.37
2019-01-26T04:56:33.801Z,31.70
2019-01-26T04:59:00.767Z,30.43
2019-01-26T05:01:27.880Z,30.67
2019-01-26T05:03:54.868Z,31.07
2019-01-26T05:06:21.775Z,31.40
2019-01-26T05:08:48.754Z,31.57
2019-01-26T05:11:15.744Z,29.10
2019-01-26T05:21:02.596Z,27.93
2019-01-26T05:23:29.567Z,29.30
2019-01-26T05:25:56.616Z,29.50
2019-01-26T05:28:23.571Z,29.10
2019-01-26T05:30:50.573Z,30.83
2019-01-26T05:33:17.511Z,28.30
2019-01-26T05:35:44.464Z,28.60
2019-01-26T05:38:11.483Z,27.80
2019-01-26T05:40:38.465Z,29.60
2019-01-26T05:43:05.599Z,28.00
2019-01-26T05:45:32.601Z,29.27
2019-01-26T05:47:59.538Z,28.60
2019-01-26T05:50:26.555Z,29.47
2019-01-26T05:52:53.567Z,29.07
2019-01-26T05:55:20.512Z,28.20
2019-01-26T05:57:47.959Z,30.43
2019-01-26T06:00:25.179Z,31.53
2019-01-26T06:02:52.081Z,30.80
2019-01-26T06:05:19.238Z,29.50
2019-01-26T06:07:46.183Z,28.83
2019-01-26T06:10:13.438Z,30.23
2019-01-26T06:12:40.411Z,31.37
2019-01-26T06:15:08.669Z,27.17
2019-01-26T06:17:35.635Z,29.13
2019-01-26T06:20:03.245Z,29.33
2019-01-26T06:22:30.170Z,27.40
2019-01-26T06:24:57.137Z,28.10
2019-01-26T06:27:24.093Z,28.70
2019-01-26T06:29:51.036Z,27.80
2019-01-26T06:32:18.010Z,29.93
2019-01-26T06:34:45.050Z,29.53
2019-01-26T06:37:11.996Z,29.90
2019-01-26T06:39:38.975Z,28.30
2019-01-26T06:42:05.975Z,30.70
2019-01-26T06:44:32.905Z,29.67
2019-01-26T06:46:59.859Z,29.17
2019-01-26T06:49:26.760Z,28.93
2019-01-26T06:51:53.749Z,29.97
2019-01-26T06:54:20.823Z,29.97
2019-01-26T06:56:47.786Z,31.90
2019-01-26T06:59:14.727Z,30.50
2019-01-26T07:01:41.725Z,30.70
2019-01-26T07:04:10.555Z,30.27
2019-01-26T07:06:44.799Z,32.07
2019-01-26T07:09:11.730Z,31.83
2019-01-26T07:11:38.718Z,31.20
2019-01-26T07:14:05.643Z,32.00
2019-01-26T07:16:32.616Z,34.00
2019-01-26T07:18:59.766Z,32.03
2019-01-26T07:28:46.617Z,33.60
2019-01-26T07:31:13.505Z,33.30
2019-01-26T07:41:00.365Z,31.10
2019-01-26T07:43:27.364Z,31.70
2019-01-26T07:45:54.266Z,34.75
2019-01-26T07:48:21.235Z,31.20
2019-01-26T07:50:48.148Z,29.80
2019-01-26T07:53:15.083Z,30.70
2019-01-26T07:58:08.668Z,30.03
2019-01-26T08:00:35.582Z,32.27
2019-01-26T08:03:02.729Z,30.83
2019-01-26T08:05:29.655Z,29.23
2019-01-26T08:07:56.651Z,28.57
2019-01-26T08:10:24.397Z,26.43
2019-01-26T08:12:51.769Z,25.77
2019-01-26T08:15:24.140Z,27.20
2019-01-26T08:17:51.057Z,25.97
2019-01-26T08:20:18.645Z,26.87
2019-01-26T08:22:45.783Z,28.47
2019-01-26T08:25:13.153Z,26.67
2019-01-26T08:27:40.089Z,28.47
2019-01-26T08:30:10.846Z,27.60
2019-01-26T08:32:37.795Z,23.23
2019-01-26T08:35:05.423Z,24.50
2019-01-26T08:37:32.359Z,24.23
2019-01-26T08:39:59.313Z,26.35
2019-01-26T08:42:26.314Z,23.07
2019-01-26T08:44:53.253Z,23.40
2019-01-26T08:47:20.201Z,23.90
2019-01-26T08:49:47.167Z,24.47
2019-01-26T08:52:14.068Z,23.47
2019-01-26T08:54:41.030Z,23.53
2019-01-26T08:57:08.026Z,23.20
2019-01-26T08:59:35.025Z,23.67
2019-01-26T09:02:34.076Z,22.50
2019-01-26T09:05:01.434Z,24.37
2019-01-26T09:07:28.349Z,24.10
2019-01-26T09:09:55.378Z,23.33
2019-01-26T09:12:22.279Z,23.40
2019-01-26T09:14:49.511Z,23.30
2019-01-26T09:17:16.434Z,23.60
2019-01-26T09:19:43.360Z,22.60
2019-01-26T09:22:10.300Z,21.97
2019-01-26T09:24:37.239Z,21.70
2019-01-26T09:27:04.158Z,21.00
2019-01-26T09:29:31.189Z,20.77
2019-01-26T09:31:58.334Z,20.60
2019-01-26T09:34:25.662Z,21.17
2019-01-26T09:36:52.840Z,20.50
2019-01-26T09:39:19.810Z,20.00
2019-01-26T09:41:46.782Z,20.23
2019-01-26T09:44:13.961Z,20.70
2019-01-26T09:46:40.879Z,20.27
2019-01-26T09:49:07.807Z,19.13
2019-01-26T09:51:34.772Z,20.50
2019-01-26T09:54:01.848Z,20.45
2019-01-26T09:56:28.784Z,20.73
2019-01-26T09:58:55.722Z,18.70
2019-01-26T10:01:22.732Z,19.60
2019-01-26T10:03:49.921Z,18.40
2019-01-26T10:06:17.252Z,18.30
2019-01-26T10:08:44.191Z,20.90
2019-01-26T10:11:11.210Z,18.55
2019-01-26T10:13:38.113Z,18.20
2019-01-26T10:16:05.084Z,18.57
2019-01-26T10:18:32.387Z,17.30
2019-01-26T10:20:59.487Z,17.77
2019-01-26T10:23:26.394Z,19.20
2019-01-26T10:25:53.392Z,17.83
2019-01-26T10:28:20.307Z,18.40
2019-01-26T10:30:50.930Z,17.10
2019-01-26T10:33:17.864Z,18.57
2019-01-26T10:36:16.917Z,17.97
2019-01-26T10:39:04.003Z,18.10
2019-01-26T10:41:43.158Z,19.03
2019-01-26T10:44:13.333Z,18.77
2019-01-26T10:46:40.329Z,18.27
2019-01-26T10:49:07.247Z,18.03
2019-01-26T10:51:34.192Z,18.47
2019-01-26T10:54:01.100Z,20.00
2019-01-26T10:56:28.126Z,20.50
2019-01-26T10:58:55.074Z,18.60
2019-01-26T11:01:22.090Z,19.80
2019-01-26T11:03:49.051Z,20.33
2019-01-26T11:06:16.034Z,18.87
2019-01-26T11:08:43.065Z,20.77
2019-01-26T11:11:10.038Z,21.30
2019-01-26T11:13:37.074Z,20.20
2019-01-26T11:16:03.998Z,19.40
2019-01-26T11:18:30.954Z,20.40
2019-01-26T11:20:57.944Z,20.00
2019-01-26T11:23:24.866Z,21.20
2019-01-26T11:25:51.856Z,20.90
2019-01-26T11:28:18.797Z,20.10
2019-01-26T11:30:45.764Z,20.87
2019-01-26T11:33:12.668Z,20.23
2019-01-26T11:35:39.605Z,18.73
2019-01-26T11:38:06.582Z,19.03
2019-01-26T11:40:33.512Z,18.13
2019-01-26T11:43:00.499Z,17.57
2019-01-26T11:45:53.189Z,16.87
2019-01-26T11:48:23.348Z,15.30
2019-01-26T11:50:54.877Z,14.80
2019-01-26T11:53:21.862Z,13.13
2019-01-26T11:55:54.314Z,14.90
2019-01-26T11:58:21.293Z,13.77
2019-01-26T12:01:13.933Z,14.97
2019-01-26T12:04:03.258Z,14.43
2019-01-26T12:06:33.015Z,14.87
2019-01-26T12:09:00.003Z,14.47
2019-01-26T12:11:27.403Z,14.60
2019-01-26T12:13:54.451Z,15.00
2019-01-26T12:16:26.875Z,16.00
2019-01-26T12:18:50.210Z,16.13
2019-01-26T12:21:17.182Z,14.97
2019-01-26T12:23:44.125Z,15.47
2019-01-26T12:26:11.116Z,16.87
2019-01-26T12:28:38.081Z,17.70
2019-01-26T12:31:05.062Z,17.10
2019-01-26T12:33:33.348Z,17.03
2019-01-26T12:36:00.810Z,17.97
2019-01-26T12:38:28.048Z,19.07
2019-01-26T12:40:54.989Z,16.90
2019-01-26T12:43:22.026Z,17.40
2019-01-26T12:45:49.092Z,18.17
2019-01-26T12:48:16.082Z,18.03
2019-01-26T12:50:43.086Z,20.47
2019-01-26T12:53:10.040Z,20.07
2019-01-26T12:55:37.264Z,19.87
2019-01-26T12:58:04.356Z,20.83
2019-01-26T13:00:31.296Z,23.03
2019-01-26T13:02:58.267Z,23.27
2019-01-26T13:05:25.189Z,23.07
2019-01-26T13:07:52.124Z,21.83
2019-01-26T13:10:22.587Z,22.80
2019-01-26T13:12:49.629Z,19.13
2019-01-26T13:15:16.620Z,23.90
2019-01-26T13:17:43.555Z,21.87
2019-01-26T13:20:12.038Z,20.83
2019-01-26T13:22:39.077Z,20.67
2019-01-26T13:25:07.358Z,18.93
2019-01-26T13:44:44.943Z,22.80
2019-01-26T13:47:11.938Z,20.53
2019-01-26T13:49:43.970Z,20.87
2019-01-26T13:52:07.694Z,21.90
2019-01-26T13:54:34.702Z,21.73
2019-01-26T13:57:01.648Z,23.20
2019-01-26T13:59:28.604Z,23.80
2019-01-26T14:01:55.817Z,23.67
2019-01-26T14:04:23.187Z,22.27
2019-01-26T14:06:51.375Z,24.93
2019-01-26T14:09:18.439Z,19.07
2019-01-26T14:11:45.419Z,22.20
2019-01-26T14:14:12.365Z,21.77
2019-01-26T14:16:39.304Z,19.27
2019-01-26T14:19:06.257Z,21.17
2019-01-26T14:21:33.162Z,22.90
2019-01-26T14:24:00.130Z,21.60
2019-01-26T14:26:27.026Z,22.60
2019-01-26T14:28:54.020Z,20.97
2019-01-26T14:31:20.951Z,18.10
2019-01-26T14:33:47.897Z,21.43
2019-01-26T14:36:14.836Z,22.00
2019-01-26T14:38:42.573Z,23.17
2019-01-26T14:41:09.614Z,20.73
2019-01-26T14:43:36.570Z,22.23
2019-01-26T14:46:03.468Z,20.70
2019-01-26T14:48:30.379Z,23.10
2019-01-26T14:50:57.909Z,20.73
2019-01-26T14:53:25.602Z,24.00
2019-01-26T14:55:52.517Z,23.20
2019-01-26T14:58:19.626Z,22.23
2019-01-26T15:00:46.577Z,23.97
2019-01-26T15:03:13.499Z,23.07
2019-01-26T15:05:40.491Z,22.47
2019-01-26T15:08:07.520Z,21.43
2019-01-26T15:10:34.891Z,21.37
2019-01-26T15:13:01.841Z,22.83
2019-01-26T15:15:28.831Z,24.50
2019-01-26T15:17:55.774Z,23.30
2019-01-26T15:20:26.051Z,24.90
2019-01-26T15:22:53.049Z,27.77
2019-01-26T15:25:20.135Z,29.00
2019-01-26T15:27:47.092Z,30.87
2019-01-26T15:30:17.387Z,28.10
2019-01-26T15:32:44.388Z,31.57
2019-01-26T15:35:11.371Z,30.97
2019-01-26T15:37:38.401Z,27.30
2019-01-26T15:40:06.078Z,31.57
2019-01-26T15:42:33.091Z,30.83
2019-01-26T15:45:00.096Z,29.40
2019-01-26T15:47:27.397Z,28.87
2019-01-26T15:49:54.534Z,29.10
2019-01-26T15:52:21.478Z,26.47
2019-01-26T15:54:48.435Z,26.73
2019-01-26T15:57:15.451Z,28.80
2019-01-26T15:59:42.417Z,29.17
2019-01-26T16:02:09.329Z,28.90
2019-01-26T16:04:36.275Z,29.30
2019-01-26T16:07:04.220Z,25.97
2019-01-26T16:09:31.311Z,28.10
2019-01-26T16:11:58.261Z,27.83
2019-01-26T16:14:25.239Z,26.70
2019-01-26T16:16:52.242Z,25.30
2019-01-26T16:19:19.167Z,22.50
2019-01-26T16:21:46.151Z,25.83
2019-01-26T16:24:13.058Z,23.20
2019-01-26T16:26:40.002Z,21.03
2019-01-26T16:29:06.940Z,20.63
2019-01-26T16:31:33.928Z,20.53
2019-01-26T16:34:01.742Z,18.60
2019-01-26T16:36:30.464Z,19.07
2019-01-26T16:38:57.427Z,18.33
2019-01-26T16:41:24.464Z,18.80
2019-01-26T16:43:51.380Z,19.40
2019-01-26T16:46:18.342Z,18.07
2019-01-26T16:48:45.291Z,17.53
2019-01-26T16:51:12.255Z,18.43
2019-01-26T16:53:39.173Z,16.47
2019-01-26T16:56:06.202Z,15.93
2019-01-26T16:58:33.129Z,16.27
2019-01-26T17:01:00.692Z,18.07
2019-01-26T17:03:27.600Z,17.50
2019-01-26T17:05:54.570Z,18.83
2019-01-26T17:08:21.551Z,17.17
2019-01-26T17:10:48.620Z,17.43
2019-01-26T17:13:15.606Z,18.10
2019-01-26T17:15:42.604Z,18.35
2019-01-26T17:18:13.931Z,16.70
2019-01-26T17:20:39.981Z,17.53
2019-01-26T17:23:07.149Z,17.63
2019-01-26T17:25:34.099Z,18.80
2019-01-26T17:28:01.034Z,17.20
2019-01-26T17:30:30.390Z,16.27
2019-01-26T17:32:57.334Z,17.40
2019-01-26T17:35:24.227Z,16.93
2019-01-26T17:37:51.216Z,16.70
2019-01-26T17:40:20.100Z,17.30
2019-01-26T17:42:47.217Z,17.37
2019-01-26T17:45:15.322Z,16.60
2019-01-26T17:47:42.301Z,17.80
2019-01-26T17:50:12.323Z,19.57
2019-01-26T17:52:40.465Z,19.13
2019-01-26T17:55:08.320Z,18.00
2019-01-26T17:57:35.727Z,18.27
2019-01-26T18:00:03.457Z,21.30
2019-01-26T18:02:30.434Z,23.57
2019-01-26T18:04:57.494Z,20.83
2019-01-26T18:07:24.427Z,18.77
2019-01-26T18:09:51.449Z,16.97
2019-01-26T18:12:18.350Z,18.20
2019-01-26T18:14:45.263Z,19.90
2019-01-26T18:17:12.191Z,19.67
2019-01-26T18:19:39.250Z,18.17
2019-01-26T18:22:06.149Z,17.00
2019-01-26T18:24:33.098Z,18.57
2019-01-26T18:26:59.993Z,21.50
2019-01-26T18:29:26.928Z,20.10
2019-01-26T18:31:53.824Z,19.17
2019-01-26T18:34:20.784Z,20.13
2019-01-26T18:36:47.777Z,19.20
2019-01-26T18:39:14.838Z,18.83
2019-01-26T18:41:41.736Z,18.80
2019-01-26T18:44:08.686Z,19.50
2019-01-26T18:46:35.749Z,19.70
2019-01-26T18:49:02.809Z,19.63
2019-01-26T18:51:29.763Z,19.53
2019-01-26T18:53:56.720Z,20.70
2019-01-26T18:56:23.669Z,17.90
2019-01-26T18:58:50.591Z,17.80
2019-01-26T19:01:18.171Z,18.37
2019-01-26T19:04:12.971Z,19.37
2019-01-26T19:06:39.955Z,17.60
2019-01-26T19:09:09.413Z,19.10
2019-01-26T19:11:36.315Z,17.93
2019-01-26T19:14:03.568Z,18.05
2019-01-26T19:16:30.495Z,20.50
2019-01-26T19:18:57.447Z,19.35
2019-01-26T19:21:24.358Z,19.20
2019-01-26T19:23:51.334Z,19.70
2019-01-26T19:26:18.226Z,19.60
2019-01-26T19:28:45.174Z,19.80
2019-01-26T19:31:12.103Z,18.67
2019-01-26T19:33:39.067Z,18.37
2019-01-26T19:36:06.005Z,20.30
2019-01-26T19:38:32.963Z,18.30
2019-01-26T19:40:59.924Z,16.43
2019-01-26T19:43:26.936Z,16.90
2019-01-26T19:45:53.865Z,16.80
2019-01-26T19:48:20.826Z,15.43
2019-01-26T19:50:47.752Z,16.20
2019-01-26T19:53:14.708Z,13.90
2019-01-26T19:55:41.658Z,16.33
2019-01-26T19:58:08.623Z,16.00
2019-01-26T20:00:35.568Z,14.90
2019-01-26T20:03:02.490Z,15.77
2019-01-26T20:05:29.851Z,12.57
2019-01-26T20:07:56.757Z,13.70
2019-01-26T20:10:23.855Z,13.20
2019-01-26T20:12:50.976Z,13.40
2019-01-26T20:15:18.941Z,13.50
2019-01-26T20:17:46.299Z,12.60
2019-01-26T20:20:18.923Z,12.90
2019-01-26T20:22:45.851Z,12.50
2019-01-26T20:25:13.025Z,11.27
2019-01-26T20:27:39.942Z,11.70
2019-01-26T20:30:10.994Z,11.10
2019-01-26T20:32:37.964Z,11.23
2019-01-26T20:35:05.750Z,11.10
2019-01-26T20:37:33.140Z,11.80
2019-01-26T20:40:00.986Z,10.57
2019-01-26T20:42:27.908Z,10.13
2019-01-26T20:44:54.915Z,11.00
2019-01-26T20:47:21.847Z,11.03
2019-01-26T20:49:49.272Z,11.40
2019-01-26T20:52:16.318Z,12.80
2019-01-26T20:54:43.263Z,12.10
2019-01-26T20:57:10.313Z,11.60
2019-01-26T20:59:37.348Z,11.23
2019-01-26T21:02:04.601Z,12.20
2019-01-26T21:04:32.058Z,11.80
2019-01-26T21:06:59.012Z,12.23
2019-01-26T21:09:26.081Z,12.23
2019-01-26T21:11:53.008Z,11.30
2019-01-26T21:14:19.904Z,12.13
2019-01-26T21:16:47.052Z,11.77
2019-01-26T21:19:14.000Z,10.77
2019-01-26T21:21:40.945Z,9.30
2019-01-26T21:24:07.852Z,11.10
2019-01-26T21:26:34.792Z,10.00
2019-01-26T21:29:01.704Z,10.00
2019-01-26T21:31:28.665Z,11.50
2019-01-26T21:33:55.804Z,9.90
2019-01-26T21:36:23.819Z,9.23
2019-01-26T21:38:50.807Z,9.87
2019-01-26T21:41:17.910Z,9.47
2019-01-26T21:43:44.956Z,10.70
2019-01-26T21:46:11.951Z,8.97
2019-01-26T21:48:38.885Z,9.60
2019-01-26T21:51:05.945Z,9.80
2019-01-26T21:53:33.404Z,9.90
2019-01-26T21:56:00.343Z,9.07
2019-01-26T21:58:27.291Z,7.93
2019-01-26T22:00:54.228Z,8.80
2019-01-26T22:03:21.169Z,9.23
2019-01-26T22:05:48.217Z,8.63
2019-01-26T22:08:15.131Z,8.70
2019-01-26T22:10:42.113Z,8.33
2019-01-26T22:13:09.079Z,7.90
2019-01-26T22:15:36.107Z,7.47
2019-01-26T22:18:04.092Z,7.80
2019-01-26T22:20:31.050Z,7.17
2019-01-26T22:22:58.254Z,6.70
2019-01-26T22:25:25.169Z,6.00
2019-01-26T22:27:53.760Z,7.17
2019-01-26T22:30:22.791Z,6.40
2019-01-26T22:32:49.768Z,6.33
2019-01-26T22:35:17.301Z,6.37
2019-01-26T22:37:44.773Z,5.00
2019-01-26T22:40:15.386Z,4.90
2019-01-26T22:42:42.351Z,4.97
2019-01-26T22:45:09.791Z,5.27
2019-01-26T22:47:36.872Z,5.20
2019-01-26T22:50:05.618Z,3.97
2019-01-26T22:52:32.742Z,4.20
2019-01-26T22:54:59.717Z,5.30
2019-01-26T22:57:26.773Z,4.60
2019-01-26T22:59:53.691Z,4.73
2019-01-26T23:02:20.716Z,3.50
2019-01-26T23:05:35.467Z,3.30
2019-01-26T23:08:18.926Z,3.73
2019-01-26T23:11:01.477Z,3.53
2019-01-26T23:13:42.517Z,3.10
2019-01-26T23:16:56.800Z,2.90
2019-01-26T23:19:51.780Z,2.60
2019-01-26T23:22:46.674Z,3.80
2019-01-26T23:25:31.034Z,3.23
2019-01-26T23:28:30.730Z,2.67
2019-01-26T23:31:19.726Z,3.27
2019-01-26T23:33:49.375Z,2.50
2019-01-26T23:36:16.416Z,2.50
2019-01-26T23:38:43.397Z,2.60
2019-01-26T23:41:13.474Z,2.63
2019-01-26T23:43:40.420Z,2.67
2019-01-26T23:46:07.346Z,2.70
2019-01-26T23:48:34.294Z,2.80
2019-01-26T23:51:01.284Z,2.80
2019-01-26T23:53:28.227Z,2.30
2019-01-26T23:55:55.141Z,2.10
2019-01-26T23:58:22.157Z,2.15
